createdAt,value
2018-06-12T00:01:13.940Z,17.90
2018-06-12T00:03:18.747Z,17.90
2018-06-12T00:05:23.335Z,18.00
2018-06-12T00:07:28.060Z,18.00
2018-06-12T00:09:32.627Z,18.00
2018-06-12T00:11:37.148Z,18.00
2018-06-12T00:13:41.624Z,18.00
2018-06-12T00:15:46.098Z,18.10
2018-06-12T00:17:50.627Z,18.10
2018-06-12T00:19:55.124Z,18.10
2018-06-12T00:21:59.696Z,18.10
2018-06-12T00:24:04.187Z,18.10
2018-06-12T00:26:08.666Z,18.10
2018-06-12T00:28:13.226Z,18.10
2018-06-12T00:30:17.742Z,18.00
2018-06-12T00:32:22.293Z,18.00
2018-06-12T00:34:26.784Z,18.00
2018-06-12T00:36:31.299Z,18.00
2018-06-12T00:38:35.851Z,18.00
2018-06-12T00:40:40.366Z,18.00
2018-06-12T00:42:44.865Z,18.10
2018-06-12T00:44:49.309Z,18.10
2018-06-12T00:46:53.820Z,18.10
2018-06-12T00:48:58.352Z,18.10
2018-06-12T00:51:02.834Z,18.00
2018-06-12T00:53:07.317Z,18.00
2018-06-12T00:55:11.797Z,18.00
2018-06-12T00:57:16.303Z,18.00
2018-06-12T00:59:20.753Z,18.00
2018-06-12T01:01:25.219Z,18.00
2018-06-12T01:03:29.726Z,18.00
2018-06-12T01:05:34.209Z,18.00
2018-06-12T01:07:38.734Z,18.00
2018-06-12T01:09:43.258Z,18.00
2018-06-12T01:11:47.709Z,18.00
2018-06-12T01:13:52.206Z,18.00
2018-06-12T01:15:56.707Z,17.90
2018-06-12T01:18:01.189Z,17.90
2018-06-12T01:20:05.690Z,17.90
2018-06-12T01:22:10.209Z,17.90
2018-06-12T01:24:14.689Z,17.90
2018-06-12T01:26:19.157Z,17.90
2018-06-12T01:28:23.666Z,17.90
2018-06-12T01:30:28.185Z,17.90
2018-06-12T01:32:32.688Z,17.90
2018-06-12T01:34:37.178Z,17.90
2018-06-12T01:36:41.696Z,17.90
2018-06-12T01:38:46.168Z,17.90
2018-06-12T01:40:50.698Z,17.90
2018-06-12T01:42:55.181Z,17.90
2018-06-12T01:44:59.737Z,17.90
2018-06-12T01:47:04.367Z,17.90
2018-06-12T01:49:08.925Z,17.90
2018-06-12T01:51:13.438Z,17.90
2018-06-12T01:53:17.936Z,17.80
2018-06-12T01:55:22.438Z,17.80
2018-06-12T01:57:26.929Z,17.70
2018-06-12T01:59:31.464Z,17.70
2018-06-12T02:01:35.918Z,17.70
2018-06-12T02:03:40.466Z,17.70
2018-06-12T02:05:44.896Z,17.70
2018-06-12T02:07:49.437Z,17.60
2018-06-12T02:09:53.965Z,17.60
2018-06-12T02:11:58.461Z,17.60
2018-06-12T02:14:03.056Z,17.60
2018-06-12T02:16:07.569Z,17.50
2018-06-12T02:18:12.098Z,17.50
2018-06-12T02:20:16.570Z,17.50
2018-06-12T02:22:21.097Z,17.50
2018-06-12T02:24:25.585Z,17.40
2018-06-12T02:26:30.046Z,17.40
2018-06-12T02:28:34.512Z,17.40
2018-06-12T02:30:38.995Z,17.40
2018-06-12T02:32:43.470Z,17.40
2018-06-12T02:34:48.009Z,17.40
2018-06-12T02:36:52.549Z,17.40
2018-06-12T02:38:57.288Z,17.40
2018-06-12T02:41:01.768Z,17.40
2018-06-12T02:43:06.311Z,17.40
2018-06-12T02:45:10.858Z,17.40
2018-06-12T02:47:15.320Z,17.30
2018-06-12T02:49:19.814Z,17.30
2018-06-12T02:51:24.332Z,17.30
2018-06-12T02:53:28.856Z,17.30
2018-06-12T02:55:33.372Z,17.30
2018-06-12T02:57:37.861Z,17.30
2018-06-12T02:59:42.331Z,17.30
2018-06-12T03:01:46.858Z,17.20
2018-06-12T03:03:52.168Z,17.10
2018-06-12T03:05:56.631Z,17.10
2018-06-12T03:08:01.109Z,17.10
2018-06-12T03:10:05.599Z,17.10
2018-06-12T03:12:10.068Z,17.10
2018-06-12T03:14:14.589Z,17.10
2018-06-12T03:16:19.052Z,17.20
2018-06-12T03:18:24.390Z,17.20
2018-06-12T03:20:39.947Z,17.20
2018-06-12T03:22:44.442Z,17.20
2018-06-12T03:24:48.938Z,17.20
2018-06-12T03:26:53.436Z,17.20
2018-06-12T03:28:57.948Z,17.10
2018-06-12T03:31:02.421Z,17.10
2018-06-12T03:35:10.966Z,16.90
2018-06-12T03:37:15.534Z,16.90
2018-06-12T03:39:20.067Z,16.90
2018-06-12T03:41:25.573Z,16.90
2018-06-12T03:43:30.130Z,16.90
2018-06-12T03:45:34.629Z,16.90
2018-06-12T03:47:39.130Z,16.90
2018-06-12T03:49:43.632Z,16.80
2018-06-12T03:51:48.180Z,16.80
2018-06-12T03:53:52.729Z,16.90
2018-06-12T03:58:01.491Z,16.90
2018-06-12T04:00:06.752Z,16.90
2018-06-12T04:02:11.317Z,16.90
2018-06-12T04:04:15.853Z,16.90
2018-06-12T04:06:20.372Z,16.90
2018-06-12T04:08:24.907Z,16.90
2018-06-12T04:10:29.424Z,16.90
2018-06-12T04:14:37.924Z,16.90
2018-06-12T04:16:42.593Z,16.90
2018-06-12T04:18:47.147Z,16.80
2018-06-12T04:20:51.656Z,16.80
2018-06-12T04:22:56.130Z,16.80
2018-06-12T04:25:00.687Z,16.80
2018-06-12T04:27:05.202Z,16.70
2018-06-12T04:29:09.715Z,16.70
2018-06-12T04:31:14.212Z,16.70
2018-06-12T04:33:18.781Z,16.70
2018-06-12T04:35:23.452Z,16.70
2018-06-12T04:37:27.913Z,16.60
2018-06-12T04:39:32.465Z,16.60
2018-06-12T04:41:37.329Z,16.60
2018-06-12T04:43:41.957Z,16.60
2018-06-12T04:45:46.606Z,16.60
2018-06-12T04:47:51.099Z,16.60
2018-06-12T04:49:55.812Z,16.70
2018-06-12T04:52:00.502Z,16.70
2018-06-12T04:54:05.317Z,16.70
2018-06-12T04:56:10.792Z,16.80
2018-06-12T04:58:15.479Z,16.80
2018-06-12T05:00:20.048Z,16.70
2018-06-12T05:02:24.666Z,16.70
2018-06-12T05:04:29.277Z,16.60
2018-06-12T05:06:33.896Z,16.60
2018-06-12T05:08:38.410Z,16.60
2018-06-12T05:10:43.066Z,16.60
2018-06-12T05:12:47.654Z,16.60
2018-06-12T05:14:52.251Z,16.60
2018-06-12T05:16:56.770Z,16.60
2018-06-12T05:19:01.391Z,16.60
2018-06-12T05:21:06.242Z,16.60
2018-06-12T05:23:10.967Z,16.70
2018-06-12T05:25:15.567Z,16.70
2018-06-12T05:27:20.267Z,16.60
2018-06-12T05:29:24.940Z,16.70
2018-06-12T05:31:29.591Z,16.70
2018-06-12T05:33:34.126Z,16.70
2018-06-12T05:35:40.078Z,16.80
2018-06-12T05:37:45.229Z,16.80
2018-06-12T05:39:50.357Z,16.80
2018-06-12T05:41:54.944Z,16.80
2018-06-12T05:43:59.701Z,16.80
2018-06-12T05:46:04.355Z,16.60
2018-06-12T05:48:09.255Z,16.60
2018-06-12T05:50:13.845Z,16.50
2018-06-12T05:52:18.469Z,16.50
2018-06-12T05:54:23.069Z,16.60
2018-06-12T05:56:27.682Z,16.60
2018-06-12T05:58:32.795Z,16.60
2018-06-12T06:00:37.351Z,16.60
2018-06-12T06:02:42.022Z,16.60
2018-06-12T06:04:46.695Z,16.60
2018-06-12T06:06:51.253Z,16.60
2018-06-12T06:08:55.803Z,16.70
2018-06-12T06:11:00.426Z,16.60
2018-06-12T06:15:09.090Z,16.70
2018-06-12T06:17:13.740Z,16.70
2018-06-12T06:19:18.398Z,16.60
2018-06-12T06:23:27.043Z,16.50
2018-06-12T06:25:31.716Z,16.50
2018-06-12T06:27:36.318Z,16.50
2018-06-12T06:29:40.946Z,16.50
2018-06-12T06:31:45.563Z,16.50
2018-06-12T06:33:50.109Z,16.40
2018-06-12T06:37:58.735Z,16.40
2018-06-12T06:40:03.425Z,16.30
2018-06-12T06:42:07.930Z,16.30
2018-06-12T06:44:12.840Z,16.30
2018-06-12T06:46:17.498Z,16.40
2018-06-12T06:48:22.077Z,16.40
2018-06-12T06:50:26.605Z,16.50
2018-06-12T06:52:31.177Z,16.50
2018-06-12T06:54:35.784Z,16.50
2018-06-12T06:56:40.345Z,16.60
2018-06-12T06:58:44.901Z,16.60
2018-06-12T07:00:49.662Z,16.60
2018-06-12T07:02:54.386Z,16.60
2018-06-12T07:04:58.989Z,16.50
2018-06-12T07:07:03.587Z,16.40
2018-06-12T07:09:08.968Z,16.40
2018-06-12T07:11:13.578Z,16.50
2018-06-12T07:13:18.247Z,16.40
2018-06-12T07:15:22.867Z,16.40
2018-06-12T07:17:27.420Z,16.40
2018-06-12T07:19:31.984Z,16.50
2018-06-12T07:21:37.024Z,16.50
2018-06-12T07:23:41.544Z,16.50
2018-06-12T07:25:46.064Z,16.50
2018-06-12T07:27:50.791Z,16.50
2018-06-12T07:29:55.381Z,16.50
2018-06-12T07:32:00.003Z,16.50
2018-06-12T07:34:04.492Z,16.50
2018-06-12T07:36:09.013Z,16.50
2018-06-12T07:38:13.532Z,16.50
2018-06-12T07:40:18.139Z,16.40
2018-06-12T07:42:22.639Z,16.40
2018-06-12T07:44:27.126Z,16.40
2018-06-12T07:48:38.528Z,16.30
2018-06-12T07:50:44.135Z,16.20
2018-06-12T07:52:52.833Z,16.10
2018-06-12T07:54:57.664Z,16.10
2018-06-12T07:57:02.215Z,16.00
2018-06-12T07:59:06.939Z,16.00
2018-06-12T08:01:11.971Z,16.00
2018-06-12T08:03:17.013Z,16.10
2018-06-12T08:05:22.165Z,16.10
2018-06-12T08:07:28.052Z,16.00
2018-06-12T08:09:32.600Z,16.10
2018-06-12T08:11:37.093Z,16.10
2018-06-12T08:13:41.717Z,16.00
2018-06-12T08:15:46.320Z,16.00
2018-06-12T08:17:50.812Z,16.00
2018-06-12T08:19:55.694Z,16.00
2018-06-12T08:22:00.229Z,16.00
2018-06-12T08:24:04.776Z,16.00
2018-06-12T08:26:09.296Z,16.00
2018-06-12T08:28:13.748Z,15.90
2018-06-12T08:30:18.298Z,15.90
2018-06-12T08:32:22.727Z,15.90
2018-06-12T08:34:27.149Z,16.00
2018-06-12T08:36:31.716Z,15.90
2018-06-12T08:38:36.180Z,16.00
2018-06-12T08:40:40.698Z,16.00
2018-06-12T08:42:45.279Z,16.10
2018-06-12T08:44:49.876Z,16.10
2018-06-12T08:46:54.462Z,16.10
2018-06-12T08:48:59.053Z,16.10
2018-06-12T08:51:03.708Z,16.20
2018-06-12T08:53:08.267Z,16.20
2018-06-12T08:55:12.850Z,16.20
2018-06-12T08:57:17.367Z,16.30
2018-06-12T08:59:21.844Z,16.30
2018-06-12T09:01:26.412Z,16.30
2018-06-12T09:03:30.918Z,16.40
2018-06-12T09:05:35.497Z,16.50
2018-06-12T09:07:40.001Z,16.50
2018-06-12T09:09:44.566Z,16.60
2018-06-12T09:11:50.094Z,16.70
2018-06-12T09:13:54.711Z,16.80
2018-06-12T09:15:59.346Z,17.00
2018-06-12T09:18:03.905Z,17.10
2018-06-12T09:20:08.557Z,17.20
2018-06-12T09:22:13.261Z,17.20
2018-06-12T09:24:17.868Z,17.20
2018-06-12T09:26:22.444Z,17.20
2018-06-12T09:28:27.002Z,17.20
2018-06-12T09:30:31.604Z,17.10
2018-06-12T09:32:36.339Z,17.10
2018-06-12T09:34:40.894Z,17.00
2018-06-12T09:38:49.616Z,16.90
2018-06-12T09:40:54.234Z,16.90
2018-06-12T09:42:58.780Z,16.90
2018-06-12T09:45:03.379Z,16.90
2018-06-12T09:47:07.947Z,17.00
2018-06-12T09:49:12.502Z,17.00
2018-06-12T09:51:17.027Z,17.20
2018-06-12T09:53:21.481Z,17.30
2018-06-12T09:55:25.975Z,17.40
2018-06-12T09:57:30.543Z,17.40
2018-06-12T09:59:35.214Z,17.50
2018-06-12T10:01:39.763Z,17.50
2018-06-12T10:03:44.371Z,17.50
2018-06-12T10:05:48.832Z,17.50
2018-06-12T10:07:53.466Z,17.50
2018-06-12T10:09:58.021Z,17.50
2018-06-12T10:12:02.528Z,17.50
2018-06-12T10:14:07.075Z,17.70
2018-06-12T10:16:11.583Z,17.80
2018-06-12T10:18:16.064Z,17.80
2018-06-12T10:20:20.627Z,17.80
2018-06-12T10:22:25.130Z,17.70
2018-06-12T10:24:29.895Z,17.60
2018-06-12T10:26:34.545Z,17.60
2018-06-12T10:28:39.017Z,17.60
2018-06-12T10:30:43.503Z,17.60
2018-06-12T10:32:47.979Z,17.60
2018-06-12T10:34:52.421Z,17.70
2018-06-12T10:36:56.982Z,17.60
2018-06-12T10:39:01.515Z,17.60
2018-06-12T10:41:06.025Z,17.60
2018-06-12T10:43:10.516Z,17.60
2018-06-12T10:45:15.027Z,17.50
2018-06-12T10:47:20.132Z,17.50
2018-06-12T10:49:24.778Z,17.50
2018-06-12T10:51:29.320Z,17.50
2018-06-12T10:53:33.860Z,17.60
2018-06-12T10:55:39.024Z,17.60
2018-06-12T10:57:43.546Z,17.50
2018-06-12T10:59:48.137Z,17.50
2018-06-12T11:01:52.722Z,17.50
2018-06-12T11:03:57.213Z,17.50
2018-06-12T11:06:03.732Z,17.50
2018-06-12T11:10:13.804Z,17.60
2018-06-12T11:12:18.380Z,17.60
2018-06-12T11:14:22.878Z,17.60
2018-06-12T11:16:27.470Z,17.70
2018-06-12T11:18:31.984Z,17.60
2018-06-12T11:20:36.509Z,17.60
2018-06-12T11:22:41.004Z,17.60
2018-06-12T11:24:45.481Z,17.70
2018-06-12T11:26:50.204Z,17.70
2018-06-12T11:28:54.791Z,17.80
2018-06-12T11:30:59.260Z,18.00
2018-06-12T11:33:04.152Z,18.00
2018-06-12T11:35:08.826Z,18.10
2018-06-12T11:37:13.739Z,18.00
2018-06-12T11:39:18.621Z,17.90
2018-06-12T11:41:23.319Z,17.80
2018-06-12T11:43:27.928Z,17.70
2018-06-12T11:45:32.573Z,17.50
2018-06-12T11:47:44.113Z,17.40
2018-06-12T11:49:49.336Z,17.40
2018-06-12T11:51:54.575Z,17.40
2018-06-12T11:53:59.322Z,17.40
2018-06-12T11:56:03.951Z,17.40
2018-06-12T11:58:08.774Z,17.40
2018-06-12T12:00:13.582Z,17.40
2018-06-12T12:02:18.215Z,17.40
2018-06-12T12:04:22.725Z,17.30
2018-06-12T12:06:27.303Z,17.30
2018-06-12T12:08:31.856Z,17.30
2018-06-12T12:10:36.580Z,17.20
2018-06-12T12:12:41.126Z,17.20
2018-06-12T12:14:45.619Z,17.20
2018-06-12T12:16:50.960Z,17.20
2018-06-12T12:18:55.814Z,17.00
2018-06-12T12:21:02.541Z,17.00
2018-06-12T12:23:08.243Z,17.00
2018-06-12T12:25:13.073Z,17.00
2018-06-12T12:27:18.535Z,17.00
2018-06-12T12:29:23.172Z,16.90
2018-06-12T12:31:27.830Z,16.90
2018-06-12T12:33:32.460Z,16.90
2018-06-12T12:35:37.021Z,16.90
2018-06-12T12:37:41.905Z,16.90
2018-06-12T12:39:46.539Z,16.80
2018-06-12T12:41:51.586Z,16.80
2018-06-12T12:43:57.295Z,16.80
2018-06-12T12:46:03.149Z,16.70
2018-06-12T12:48:09.516Z,16.70
2018-06-12T12:50:14.721Z,16.70
2018-06-12T12:52:20.374Z,16.70
2018-06-12T12:54:25.368Z,16.70
2018-06-12T12:56:30.974Z,16.70
2018-06-12T12:58:36.852Z,16.70
2018-06-12T13:00:45.338Z,16.80
2018-06-12T13:02:51.849Z,16.80
2018-06-12T13:04:57.500Z,16.90
2018-06-12T13:07:07.308Z,16.90
2018-06-12T13:09:12.532Z,16.90
2018-06-12T13:11:18.688Z,17.00
2018-06-12T13:13:25.443Z,17.00
2018-06-12T13:15:30.126Z,16.90
2018-06-12T13:17:50.471Z,16.90
2018-06-12T13:19:54.967Z,16.90
2018-06-12T13:24:03.706Z,16.90
2018-06-12T13:26:08.350Z,16.90
2018-06-12T13:28:13.014Z,16.90
2018-06-12T13:30:17.741Z,16.90
2018-06-12T13:32:22.374Z,16.90
2018-06-12T13:34:27.122Z,16.80
2018-06-12T13:36:31.779Z,16.80
2018-06-12T13:38:36.502Z,16.90
2018-06-12T13:40:41.120Z,16.80
2018-06-12T13:42:45.838Z,16.70
2018-06-12T13:44:50.549Z,16.80
2018-06-12T13:46:56.310Z,16.80
2018-06-12T13:49:00.980Z,16.70
2018-06-12T13:51:05.687Z,16.70
2018-06-12T13:53:10.326Z,16.80
2018-06-12T13:55:15.157Z,16.80
2018-06-12T13:57:20.377Z,16.80
2018-06-12T13:59:25.085Z,16.80
2018-06-12T14:01:29.790Z,16.80
2018-06-12T14:03:34.430Z,16.80
2018-06-12T14:05:39.273Z,16.80
2018-06-12T14:07:43.927Z,16.80
2018-06-12T14:09:48.701Z,16.80
2018-06-12T14:11:53.338Z,16.80
2018-06-12T14:13:58.267Z,16.80
2018-06-12T14:16:02.979Z,16.70
2018-06-12T14:18:08.873Z,16.60
2018-06-12T14:20:13.608Z,16.50
2018-06-12T14:22:18.390Z,16.40
2018-06-12T14:24:23.031Z,16.40
2018-06-12T14:26:27.827Z,16.30
2018-06-12T14:28:32.467Z,16.30
2018-06-12T14:30:37.258Z,16.30
2018-06-12T14:32:41.865Z,16.20
2018-06-12T14:34:47.259Z,16.20
2018-06-12T14:36:51.984Z,16.20
2018-06-12T14:38:56.787Z,16.30
2018-06-12T14:41:01.422Z,16.20
2018-06-12T14:43:06.239Z,16.20
2018-06-12T14:45:12.141Z,16.20
2018-06-12T14:47:16.792Z,16.20
2018-06-12T14:49:21.476Z,16.20
2018-06-12T14:51:28.229Z,16.20
2018-06-12T14:53:33.020Z,16.20
2018-06-12T14:55:37.733Z,16.30
2018-06-12T14:57:42.313Z,16.40
2018-06-12T14:59:47.230Z,16.50
2018-06-12T15:01:51.853Z,16.50
2018-06-12T15:03:56.611Z,16.50
2018-06-12T15:06:01.183Z,16.50
2018-06-12T15:08:06.100Z,16.50
2018-06-12T15:10:10.791Z,16.40
2018-06-12T15:12:15.555Z,16.40
2018-06-12T15:14:20.175Z,16.30
2018-06-12T15:16:24.835Z,16.30
2018-06-12T15:18:29.527Z,16.20
2018-06-12T15:20:34.141Z,16.30
2018-06-12T15:22:38.793Z,16.30
2018-06-12T15:24:43.463Z,16.30
2018-06-12T15:26:48.053Z,16.30
2018-06-12T15:28:52.713Z,16.30
2018-06-12T15:31:00.607Z,16.20
2018-06-12T15:33:06.839Z,16.20
2018-06-12T15:35:11.910Z,16.20
2018-06-12T15:37:17.762Z,16.10
2018-06-12T15:39:23.585Z,16.10
2018-06-12T15:41:28.199Z,16.10
2018-06-12T15:43:33.060Z,16.10
2018-06-12T15:45:37.640Z,16.10
2018-06-12T15:47:42.277Z,16.10
2018-06-12T15:49:46.941Z,16.10
2018-06-12T15:51:51.702Z,16.10
2018-06-12T15:53:56.376Z,16.00
2018-06-12T15:56:01.040Z,16.00
2018-06-12T15:58:05.716Z,15.90
2018-06-12T16:00:10.430Z,16.00
2018-06-12T16:02:15.129Z,16.00
2018-06-12T16:04:19.756Z,16.00
2018-06-12T16:06:25.046Z,16.00
2018-06-12T16:08:29.793Z,16.00
2018-06-12T16:10:34.506Z,16.00
2018-06-12T16:12:40.135Z,16.10
2018-06-12T16:14:45.033Z,16.10
2018-06-12T16:16:52.359Z,16.10
2018-06-12T16:18:57.120Z,16.00
2018-06-12T16:21:01.984Z,16.10
2018-06-12T16:23:08.343Z,16.10
2018-06-12T16:25:13.655Z,16.10
2018-06-12T16:27:19.910Z,16.10
2018-06-12T16:29:24.774Z,16.10
2018-06-12T16:31:29.412Z,16.20
2018-06-12T16:33:34.748Z,16.20
2018-06-12T16:35:40.654Z,16.20
2018-06-12T16:37:45.350Z,16.20
2018-06-12T16:39:51.158Z,16.30
2018-06-12T16:41:56.180Z,16.30
2018-06-12T16:44:00.940Z,16.30
2018-06-12T16:46:05.978Z,16.40
2018-06-12T16:48:10.566Z,16.30
2018-06-12T16:50:15.672Z,16.30
2018-06-12T16:52:20.500Z,16.20
2018-06-12T16:54:25.444Z,16.10
2018-06-12T16:56:49.948Z,16.00
2018-06-12T16:58:54.690Z,16.00
2018-06-12T17:01:08.928Z,16.00
2018-06-12T17:03:13.835Z,16.00
2018-06-12T17:05:18.516Z,16.00
2018-06-12T17:07:23.290Z,16.00
2018-06-12T17:09:28.000Z,15.90
2018-06-12T17:11:32.641Z,15.90
2018-06-12T17:13:37.801Z,15.90
2018-06-12T17:15:42.590Z,15.90
2018-06-12T17:17:47.193Z,15.80
2018-06-12T17:19:51.982Z,15.80
2018-06-12T17:21:56.592Z,15.80
2018-06-12T17:24:01.253Z,15.70
2018-06-12T17:26:05.891Z,15.80
2018-06-12T17:28:10.765Z,15.80
2018-06-12T17:30:15.348Z,15.70
2018-06-12T17:32:20.115Z,15.80
2018-06-12T17:34:24.760Z,15.80
2018-06-12T17:36:29.491Z,15.80
2018-06-12T17:38:34.062Z,15.80
2018-06-12T17:40:38.828Z,15.80
2018-06-12T17:42:43.442Z,15.80
2018-06-12T17:44:48.072Z,15.80
2018-06-12T17:46:52.666Z,15.80
2018-06-12T17:48:57.339Z,15.90
2018-06-12T17:51:01.917Z,15.80
2018-06-12T17:53:08.650Z,15.80
2018-06-12T17:55:21.353Z,15.80
2018-06-12T17:57:26.302Z,15.80
2018-06-12T17:59:31.246Z,15.80
2018-06-12T18:01:35.904Z,15.80
2018-06-12T18:03:40.518Z,15.80
2018-06-12T18:05:45.218Z,15.80
2018-06-12T18:07:49.955Z,15.80
2018-06-12T18:09:57.491Z,15.80
2018-06-12T18:12:02.545Z,15.80
2018-06-12T18:14:07.197Z,15.80
2018-06-12T18:16:11.828Z,15.90
2018-06-12T18:18:16.561Z,15.90
2018-06-12T18:20:22.513Z,15.90
2018-06-12T18:24:36.440Z,15.90
2018-06-12T18:26:44.823Z,15.90
2018-06-12T18:28:49.939Z,15.90
2018-06-12T18:30:54.635Z,15.90
2018-06-12T18:32:59.285Z,15.90
2018-06-12T18:35:10.937Z,15.90
2018-06-12T18:37:16.428Z,15.90
2018-06-12T18:39:21.097Z,15.90
2018-06-12T18:41:26.782Z,15.90
2018-06-12T18:43:31.516Z,15.90
2018-06-12T18:45:44.938Z,15.90
2018-06-12T18:47:49.870Z,16.00
2018-06-12T18:49:54.636Z,16.00
2018-06-12T18:51:59.348Z,16.00
2018-06-12T18:54:04.687Z,16.00
2018-06-12T18:56:09.251Z,16.00
2018-06-12T18:58:13.943Z,16.00
2018-06-12T19:00:42.509Z,16.00
2018-06-12T19:02:48.300Z,16.00
2018-06-12T19:04:56.443Z,16.00
2018-06-12T19:07:04.634Z,16.00
2018-06-12T19:09:09.265Z,16.00
2018-06-12T19:11:14.321Z,16.00
2018-06-12T19:13:19.716Z,15.90
2018-06-12T19:15:24.821Z,15.90
2018-06-12T19:17:29.471Z,15.90
2018-06-12T19:19:34.212Z,15.90
2018-06-12T19:21:39.431Z,15.90
2018-06-12T19:23:44.222Z,15.80
2018-06-12T19:25:49.713Z,15.80
2018-06-12T19:27:55.148Z,15.80
2018-06-12T19:30:00.133Z,15.80
2018-06-12T19:32:04.912Z,15.70
2018-06-12T19:34:11.456Z,15.70
2018-06-12T19:36:16.322Z,15.70
2018-06-12T19:38:23.022Z,15.70
2018-06-12T19:40:28.022Z,15.70
2018-06-12T19:42:33.443Z,15.70
2018-06-12T19:44:38.229Z,15.60
2018-06-12T19:46:45.755Z,15.60
2018-06-12T19:48:51.108Z,15.60
2018-06-12T19:50:58.503Z,15.60
2018-06-12T19:53:06.257Z,15.60
2018-06-12T19:55:18.119Z,15.60
2018-06-12T19:57:28.132Z,15.60
2018-06-12T19:59:38.547Z,15.60
2018-06-12T20:02:13.605Z,15.60
2018-06-12T20:04:18.749Z,15.50
2018-06-12T20:06:25.195Z,15.50
2018-06-12T20:08:34.233Z,15.50
2018-06-12T20:10:41.417Z,15.50
2018-06-12T20:12:46.010Z,15.50
2018-06-12T20:14:50.689Z,15.50
2018-06-12T20:16:55.291Z,15.50
2018-06-12T20:19:00.086Z,15.50
2018-06-12T20:21:04.733Z,15.50
2018-06-12T20:23:09.457Z,15.40
2018-06-12T20:25:14.093Z,15.40
2018-06-12T20:27:18.787Z,15.40
2018-06-12T20:29:23.348Z,15.40
2018-06-12T20:31:27.996Z,15.40
2018-06-12T20:33:32.575Z,15.40
2018-06-12T20:35:37.380Z,15.40
2018-06-12T20:37:41.983Z,15.30
2018-06-12T20:41:50.791Z,15.30
2018-06-12T20:43:55.471Z,15.40
2018-06-12T20:46:00.079Z,15.40
2018-06-12T20:48:04.928Z,15.40
2018-06-12T20:50:09.585Z,15.40
2018-06-12T20:52:14.379Z,15.40
2018-06-12T20:54:19.003Z,15.40
2018-06-12T20:56:23.682Z,15.40
2018-06-12T20:58:28.278Z,15.40
2018-06-12T21:00:33.053Z,15.40
2018-06-12T21:02:37.698Z,15.40
2018-06-12T21:04:42.503Z,15.40
2018-06-12T21:06:47.279Z,15.40
2018-06-12T21:08:51.966Z,15.40
2018-06-12T21:10:56.571Z,15.40
2018-06-12T21:13:01.279Z,15.30
2018-06-12T21:15:05.887Z,15.30
2018-06-12T21:17:10.645Z,15.30
2018-06-12T21:19:15.275Z,15.30
2018-06-12T21:21:19.957Z,15.30
2018-06-12T21:23:24.611Z,15.30
2018-06-12T21:27:33.403Z,15.30
2018-06-12T21:29:38.209Z,15.30
2018-06-12T21:31:42.837Z,15.30
2018-06-12T21:33:47.575Z,15.30
2018-06-12T21:35:52.264Z,15.30
2018-06-12T21:37:57.043Z,15.30
2018-06-12T21:40:01.668Z,15.30
2018-06-12T21:42:06.342Z,15.30
2018-06-12T21:44:10.984Z,15.30
2018-06-12T21:46:15.676Z,15.30
2018-06-12T21:48:21.012Z,15.30
2018-06-12T21:50:25.838Z,15.30
2018-06-12T21:52:30.503Z,15.20
2018-06-12T21:54:35.181Z,15.20
2018-06-12T21:56:39.824Z,15.20
2018-06-12T21:58:44.530Z,15.20
2018-06-12T22:00:49.224Z,15.20
2018-06-12T22:02:53.985Z,15.20
2018-06-12T22:04:58.635Z,15.30
2018-06-12T22:07:03.320Z,15.20
2018-06-12T22:09:07.998Z,15.30
2018-06-12T22:11:13.383Z,15.20
2018-06-12T22:13:18.019Z,15.20
2018-06-12T22:15:22.783Z,15.20
2018-06-12T22:17:27.421Z,15.20
2018-06-12T22:19:32.217Z,15.20
2018-06-12T22:21:36.885Z,15.20
2018-06-12T22:23:41.704Z,15.20
2018-06-12T22:25:46.273Z,15.20
2018-06-12T22:27:50.988Z,15.20
2018-06-12T22:29:55.781Z,15.20
2018-06-12T22:32:00.559Z,15.10
2018-06-12T22:34:05.194Z,15.10
2018-06-12T22:36:09.963Z,15.10
2018-06-12T22:38:14.750Z,15.10
2018-06-12T22:42:23.901Z,15.00
2018-06-12T22:44:28.521Z,15.00
2018-06-12T22:46:33.280Z,15.00
2018-06-12T22:48:37.927Z,15.00
2018-06-12T22:50:42.580Z,15.00
2018-06-12T22:52:47.316Z,15.00
2018-06-12T22:54:52.047Z,15.00
2018-06-12T22:56:57.006Z,15.00
2018-06-12T22:59:01.637Z,15.00
2018-06-12T23:01:06.637Z,15.00
2018-06-12T23:03:11.299Z,15.00
2018-06-12T23:05:16.055Z,15.00
2018-06-12T23:07:20.646Z,14.90
2018-06-12T23:09:25.442Z,14.90
2018-06-12T23:11:31.123Z,14.90
2018-06-12T23:13:35.877Z,14.90
2018-06-12T23:15:40.467Z,14.90
2018-06-12T23:17:45.356Z,15.00
2018-06-12T23:20:01.352Z,14.90
2018-06-12T23:22:07.089Z,14.90
2018-06-12T23:24:15.209Z,14.90
2018-06-12T23:26:20.704Z,14.90
2018-06-12T23:28:28.343Z,14.90
2018-06-12T23:30:34.400Z,14.90
2018-06-12T23:34:43.692Z,14.80
2018-06-12T23:36:48.436Z,14.80
2018-06-12T23:38:53.152Z,14.80
2018-06-12T23:40:57.776Z,14.80
2018-06-12T23:43:02.357Z,14.80
2018-06-12T23:45:07.025Z,14.70
2018-06-12T23:47:11.736Z,14.80
2018-06-12T23:49:16.588Z,14.80
2018-06-12T23:51:21.237Z,14.70
2018-06-12T23:53:25.818Z,14.80
2018-06-12T23:55:30.419Z,14.70
2018-06-12T23:57:35.132Z,14.70
2018-06-12T23:59:39.809Z,14.70
